• Join FlightAware (Why Join?)
  • Login
  • US Flag 
10:15PM EDT


 

Airport Tracker/Info


-or-


 

Live Flight TrackerFlight Track Log ✈ SWA2003 ✈ 12-Apr-2013 ✈ KBWI - KMHT

Flight Track Log - Related Links

Times and Time Zones

All times are in EDT time to prevent confusion due to time zone crossing. See the SWA2003 flight status page for this flight to view local times or setup timezone preferences in your user account.

Time Position Orientation Groundspeed Altitude Reporting Facility
EDT Latitude Longitude Course Direction KTS MPH feet Rate Location/Type
06:11PM 39.1333 -76.6167 122° Southeast 197 227 2,400  Level Potomac TRACON
06:13PM 39.0828 -76.5114 122° Southeast 225 259 6,900 2,820 Climbing Washington Center
06:14PM 39.0772 -76.4231 95° East 232 267 10,000 2,340 Climbing Washington Center
06:15PM 39.1050 -76.2978 74° East 288 331 11,600 2,520 Climbing Washington Center
06:16PM 39.1392 -76.1403 74° East 367 422 15,100 3,060 Climbing Washington Center
06:17PM 39.1733 -75.9825 74° East 391 450 17,800 3,000 Climbing Washington Center
06:18PM 39.2528 -75.8542 51° Northeast 434 499 21,100 2,760 Climbing Washington Center
06:19PM 39.3425 -75.7258 48° Northeast 452 520 23,400 2,160 Climbing Washington Center
06:20PM 39.4344 -75.5942 48° Northeast 471 542 25,500 2,100 Climbing Washington Center
06:21PM 39.5322 -75.4569 47° Northeast 496 571 27,700 1,680 Climbing Washington Center
06:22PM 39.6278 -75.3167 48° Northeast 507 583 28,900 1,560 Climbing Washington Center
06:23PM 39.7275 -75.1761 47° Northeast 518 596 30,900 1,320 Climbing Washington Center
06:25PM 39.9225 -74.8958 48° Northeast 552 635 33,000 840 Climbing New York Center
06:26PM 40.0233 -74.7528 47° Northeast 541 623 33,600 1,740 Climbing New York Center
06:27PM 40.1306 -74.6014 47° Northeast 520 598 36,600 1,680 Climbing New York Center
06:28PM 40.2500 -74.5183 28° Northeast 482 555 37,000 180 Climbing New York Center
06:29PM 40.3761 -74.4844 12° North 465 535 37,000  Level New York Center
06:30PM 40.4728 -74.4594 11° North 460 529 37,000  Level New York Center
06:31PM 40.6975 -74.3947 12° North 451 519 37,000  Level Boston Center
06:33PM 40.8397 -74.3606 10° North 458 527 37,000  Level Boston Center
06:34PM 40.9653 -74.3283 11° North 458 527 37,000  Level Boston Center
06:35PM 41.0931 -74.2881 13° North 458 527 37,000  Level Boston Center
06:35PM 41.2167 -74.2531 12° North 458 527 37,000  Level Boston Center
06:36PM 41.3319 -74.2175 13° North 458 527 37,000  Level Boston Center
06:37PM 41.4575 -74.1822 12° North 458 527 37,000 -600 Level Boston Center
06:38PM 41.6019 -74.1419 12° North 458 527 35,900 -1,260 Descending Boston Center
06:39PM 41.7339 -74.1036 12° North 470 541 34,500 -1,380 Descending Boston Center
06:40PM 41.8656 -74.0681 11° North 476 548 33,200 -1,620 Descending Boston Center
06:41PM 42.0036 -74.0269 12° North 483 556 31,400 -2,520 Descending Boston Center
06:42PM 42.1419 -73.9856 13° North 490 564 28,200 -2,940 Descending Boston Center
06:44PM 42.2778 -73.9414 14° North 495 570 25,500 -2,100 Descending Boston Center
06:45PM 42.3611 -73.8000 51° Northeast 464 534 24,000 -1,140 Descending Boston Center
06:46PM 42.4131 -73.6239 68° East 461 531 23,000 -1,020 Descending Boston Center
06:47PM 42.4753 -73.4169 68° East 471 542 21,800 -1,140 Descending Boston Center
06:48PM 42.5269 -73.2233 70° East 504 580 20,800 -1,080 Descending Boston Center
06:49PM 42.5717 -73.0744 68° East 485 558 19,700 -900 Descending Boston Center
06:50PM 42.5992 -72.9761 69° East 472 543 19,100 -720 Descending Boston Center
06:51PM 42.6500 -72.7872 70° East 432 497 18,300 -1,020 Descending Boston Center
06:52PM 42.6794 -72.6406 75° East 411 473 17,100 -1,440 Descending Boston Center
06:53PM 42.7067 -72.4967 76° East 399 459 15,500 -1,680 Descending Boston Center
06:54PM 42.7358 -72.3553 74° East 394 453 13,800 -1,920 Descending Boston Center
06:55PM 42.7650 -72.2053 75° East 375 432 11,800 -2,160 Descending Boston Center
06:56PM 42.7917 -72.0694 75° East 369 425 9,600 -1,740 Descending Boston Center
06:57PM 42.8161 -71.9475 75° East 343 395 8,400 -2,160 Descending Boston Center
06:58PM 42.8261 -71.8456 82° East 311 358 5,300 -2,160 Descending Boston Center
06:59PM 42.8150 -71.7467 99° East 256 295 4,100 -1,020 Descending Boston Center
07:00PM 42.8042 -71.6817 103° East 204 235 3,300 -600 Descending Boston Center
07:01PM 42.8081 -71.6081 86° East 176 203 3,000 -660 Descending Boston Center
07:02PM 42.8325 -71.5681 50° Northeast 154 177 2,100 -540 Descending Boston Center
07:03PM 42.8656 -71.5281 42° Northeast 149 171 2,000 -420 Descending Boston Center
07:04PM 42.8903 -71.4964 43° Northeast 136 157 1,300 -720 Descending Boston Center
07:05PM 42.9172 -71.4619 43° Northeast 120 138 600 -480 Descending Boston Center
07:06PM 42.9419 -71.4361 37° Northeast 120 138 400 9,240 Descending Boston Center
07:07PM 42.9689 -71.4072 38° Northeast 120 138 19,000 8,400 Climbing Boston Center
07:08PM 42.9936 -71.3786 40° Northeast 120 138 19,000  Level Boston Center
07:10PM 42.9328 -71.4358 316° Northwest  Level Estimated
07:17PM 42.9328 -71.4358 316° Northwest  Level Estimated
07:18PM 42.9328 -71.4358 316° Northwest  Level Estimated
07:19PM 42.9328 -71.4358 316° Northwest  Level Estimated
07:20PM 42.9328 -71.4358 316° Northwest  Level Estimated
07:21PM 42.9328 -71.4358 316° Northwest  Level Estimated
07:22PM 42.9328 -71.4358 316° Northwest  Level Estimated